Time;durP1;ratioP1;P1;durP2;ratioP2;P2;SDS_P1;SDS_P2;PMS_P1;PMS_P2;Temp;Humidity;BMP_temperature;BMP_pressure;BME280_temperature;BME280_humidity;BME280_pressure;Samples;Min_cycle;Max_cycle;Signal;HPM_P1;HPM_P2
2022/03/19 00:01:54;;;;;;;10.98;3.28;;;11.60;87.50;;;;;;5053229;28;20028;-73
2022/03/19 00:04:20;;;;;;;13.32;3.85;;;11.50;87.80;;;;;;5053001;28;20035;-74
2022/03/19 00:06:47;;;;;;;14.82;3.20;;;11.40;88.10;;;;;;5052774;28;20112;-72
2022/03/19 00:09:13;;;;;;;11.52;3.15;;;11.40;88.80;;;;;;5052358;28;20041;-73
2022/03/19 00:11:40;;;;;;;17.23;4.00;;;11.30;89.00;;;;;;5053124;28;20041;-72
2022/03/19 00:14:06;;;;;;;15.40;3.85;;;11.30;89.30;;;;;;5052829;28;20100;-72
2022/03/19 00:16:32;;;;;;;16.83;3.72;;;11.20;89.70;;;;;;5053099;28;20053;-73
2022/03/19 00:18:58;;;;;;;17.20;3.45;;;11.20;89.80;;;;;;5053192;28;20032;-73
2022/03/19 00:21:23;;;;;;;14.00;3.78;;;11.20;90.00;;;;;;5052519;28;20392;-74
2022/03/19 00:23:49;;;;;;;16.63;3.22;;;11.20;90.10;;;;;;5052894;28;20023;-73
2022/03/19 00:26:15;;;;;;;15.98;3.60;;;11.20;90.20;;;;;;5052733;28;20052;-74
2022/03/19 00:28:41;;;;;;;14.45;3.60;;;11.20;90.30;;;;;;5042480;28;20025;-74
2022/03/19 00:31:07;;;;;;;16.58;4.05;;;11.20;90.20;;;;;;5052945;28;20063;-73
2022/03/19 00:33:33;;;;;;;18.23;5.10;;;11.10;90.40;;;;;;5052298;28;20025;-74
2022/03/19 00:35:59;;;;;;;14.95;3.80;;;11.10;90.60;;;;;;5052754;28;20025;-74
2022/03/19 00:38:24;;;;;;;12.68;3.28;;;11.00;90.70;;;;;;5052205;28;20044;-75
2022/03/19 00:40:51;;;;;;;14.07;3.33;;;11.00;91.00;;;;;;5052843;28;20051;-75
2022/03/19 00:43:19;;;;;;;15.70;3.70;;;11.00;91.00;;;;;;5052309;28;20029;-76
2022/03/19 00:45:46;;;;;;;14.90;3.35;;;11.00;91.10;;;;;;5052389;28;20476;-76
2022/03/19 00:48:12;;;;;;;16.63;3.70;;;11.10;91.20;;;;;;5052374;28;20029;-76
2022/03/19 00:50:38;;;;;;;13.32;3.40;;;11.00;91.00;;;;;;5052231;28;20044;-76
2022/03/19 00:53:04;;;;;;;14.05;3.55;;;11.00;91.10;;;;;;5051897;28;20021;-76
2022/03/19 00:55:29;;;;;;;17.67;3.58;;;11.00;91.20;;;;;;5052562;28;20032;-77
2022/03/19 00:57:55;;;;;;;15.48;3.83;;;11.00;91.20;;;;;;5052278;28;20582;-77
2022/03/19 01:00:25;;;;;;;14.95;3.72;;;11.10;91.10;;;;;;5055624;28;20087;-77
2022/03/19 01:02:51;;;;;;;19.88;4.43;;;11.20;91.10;;;;;;5054649;28;20460;-77
2022/03/19 01:05:17;;;;;;;15.90;3.75;;;11.20;90.90;;;;;;5056230;28;20037;-81
2022/03/19 01:07:45;;;;;;;17.33;3.92;;;11.30;90.80;;;;;;5055633;28;20475;-77
2022/03/19 01:10:14;;;;;;;13.65;3.35;;;11.20;90.70;;;;;;5054241;28;20029;-77
2022/03/19 01:12:40;;;;;;;18.95;4.70;;;11.20;90.70;;;;;;5054487;28;20039;-78
2022/03/19 01:15:06;;;;;;;18.02;4.60;;;11.20;90.80;;;;;;5054341;28;20100;-77
2022/03/19 01:17:32;;;;;;;14.70;4.68;;;11.00;91.20;;;;;;5053090;28;20048;-78
2022/03/19 01:19:59;;;;;;;15.85;4.35;;;11.00;91.20;;;;;;5054143;28;20067;-78
2022/03/19 01:22:26;;;;;;;19.77;3.97;;;11.00;91.30;;;;;;5039076;28;20426;-78
2022/03/19 01:24:51;;;;;;;14.50;4.70;;;11.00;91.40;;;;;;5054698;28;20052;-78
2022/03/19 01:27:17;;;;;;;18.95;4.20;;;10.90;91.60;;;;;;5052899;28;20043;-78
2022/03/19 01:29:43;;;;;;;11.88;3.95;;;10.90;91.80;;;;;;5037232;28;20036;-78
2022/03/19 01:32:09;;;;;;;19.02;4.75;;;10.90;91.80;;;;;;5053374;28;20032;-78
2022/03/19 01:34:35;;;;;;;20.95;4.97;;;10.90;91.70;;;;;;5054021;28;20033;-78
2022/03/19 01:37:01;;;;;;;14.23;4.75;;;10.80;91.80;;;;;;5055835;28;20515;-78
2022/03/19 01:39:27;;;;;;;15.90;5.15;;;10.80;91.90;;;;;;5055790;28;20029;-78
2022/03/19 01:41:52;;;;;;;15.95;5.40;;;10.80;92.00;;;;;;5056073;28;20021;-78
2022/03/19 01:44:19;;;;;;;22.63;5.60;;;10.80;91.90;;;;;;5055607;28;20053;-78
2022/03/19 01:46:56;;;;;;;16.85;4.68;;;10.80;92.10;;;;;;5055882;28;20037;-78
2022/03/19 01:49:22;;;;;;;18.60;5.00;;;10.80;92.00;;;;;;5055540;28;20033;-79
2022/03/19 01:51:47;;;;;;;16.33;5.72;;;10.80;91.90;;;;;;5055606;28;20123;-78
2022/03/19 01:54:14;;;;;;;15.90;5.25;;;10.90;91.80;;;;;;5055440;28;20029;-78
2022/03/19 01:56:40;;;;;;;21.85;5.82;;;10.80;91.90;;;;;;5055643;28;20029;-78
2022/03/19 01:59:07;;;;;;;15.30;5.55;;;10.70;92.00;;;;;;5055111;28;20109;-77
2022/03/19 02:01:33;;;;;;;16.02;5.07;;;10.70;92.10;;;;;;5055742;28;20128;-77
2022/03/19 02:04:00;;;;;;;17.23;5.25;;;10.70;92.30;;;;;;5055091;28;20031;-77
2022/03/19 02:06:26;;;;;;;19.88;5.78;;;10.70;92.40;;;;;;5055095;28;20491;-77
2022/03/19 02:08:53;;;;;;;15.95;5.85;;;10.70;92.10;;;;;;5054930;28;20049;-77
2022/03/19 02:11:18;;;;;;;20.67;5.85;;;10.70;92.20;;;;;;5054373;28;20052;-77
2022/03/19 02:13:44;;;;;;;19.80;6.20;;;10.70;92.10;;;;;;5054872;28;20375;-77
2022/03/19 02:16:11;;;;;;;15.98;5.68;;;10.80;92.10;;;;;;5055200;28;20548;-77
2022/03/19 02:18:36;;;;;;;20.98;5.82;;;10.80;92.00;;;;;;5054843;28;20096;-77
2022/03/19 02:21:02;;;;;;;20.60;5.95;;;10.70;91.90;;;;;;5055076;28;20052;-77
2022/03/19 02:26:12;;;;;;;21.33;5.65;;;10.60;92.30;;;;;;5054390;28;20047;-77
2022/03/19 02:28:38;;;;;;;16.70;5.40;;;10.60;92.30;;;;;;5055167;28;20025;-77
2022/03/19 02:31:04;;;;;;;17.05;5.53;;;10.70;92.00;;;;;;5054215;28;20398;-77
2022/03/19 02:33:30;;;;;;;16.73;5.35;;;10.70;91.90;;;;;;5054611;28;20024;-77
2022/03/19 02:35:55;;;;;;;16.73;5.07;;;10.70;91.90;;;;;;5054654;28;20032;-77
2022/03/19 02:38:21;;;;;;;16.20;5.63;;;10.70;91.80;;;;;;5054900;28;20498;-77
2022/03/19 02:40:46;;;;;;;17.60;5.78;;;10.70;91.70;;;;;;5054199;28;20101;-77
2022/03/19 02:43:12;;;;;;;16.15;5.80;;;10.70;91.70;;;;;;5054338;28;20037;-77
2022/03/19 02:45:37;;;;;;;16.75;5.50;;;10.60;91.90;;;;;;5054457;28;20521;-77
2022/03/19 02:48:03;;;;;;;15.57;4.65;;;10.60;91.80;;;;;;5054882;28;20476;-77
2022/03/19 02:50:33;;;;;;;18.63;5.68;;;10.60;92.10;;;;;;5054288;28;20056;-76
2022/03/19 02:53:02;;;;;;;20.73;5.60;;;10.60;91.90;;;;;;5054507;28;20025;-77
2022/03/19 02:55:32;;;;;;;17.48;5.05;;;10.60;91.80;;;;;;5054017;28;20112;-77
2022/03/19 02:57:58;;;;;;;19.23;6.43;;;10.60;91.80;;;;;;5053984;28;20503;-77
2022/03/19 03:00:23;;;;;;;17.50;5.20;;;10.60;91.70;;;;;;5053926;28;20037;-77
2022/03/19 03:02:49;;;;;;;20.42;5.55;;;10.60;91.80;;;;;;5054665;28;20087;-77
2022/03/19 03:05:14;;;;;;;13.65;4.80;;;10.50;91.60;;;;;;5053646;28;20033;-77
2022/03/19 03:07:41;;;;;;;19.08;5.32;;;10.40;91.70;;;;;;5053719;28;20037;-76
2022/03/19 03:10:07;;;;;;;13.65;4.68;;;10.50;91.60;;;;;;5053726;28;20041;-77
2022/03/19 03:12:34;;;;;;;20.25;5.93;;;10.50;91.80;;;;;;5052975;28;20562;-77
2022/03/19 03:14:59;;;;;;;14.68;4.93;;;10.50;91.70;;;;;;5053682;28;20492;-77
2022/03/19 03:17:25;;;;;;;19.00;5.47;;;10.60;91.40;;;;;;5053712;28;20013;-77
2022/03/19 03:19:51;;;;;;;19.60;5.20;;;10.60;91.20;;;;;;5053767;28;20025;-77
2022/03/19 03:22:17;;;;;;;18.25;4.95;;;10.50;91.20;;;;;;5054005;28;20041;-77
2022/03/19 03:24:43;;;;;;;15.55;4.82;;;10.50;91.30;;;;;;5053744;28;20029;-77
2022/03/19 03:27:08;;;;;;;13.45;4.28;;;10.60;91.20;;;;;;5054150;28;20032;-77
2022/03/19 03:29:34;;;;;;;17.08;5.07;;;10.60;91.10;;;;;;5053782;28;20029;-77
2022/03/19 03:31:59;;;;;;;13.88;5.18;;;10.70;90.90;;;;;;5053913;28;20037;-77
2022/03/19 03:34:25;;;;;;;18.85;5.68;;;10.70;90.70;;;;;;5053462;28;20456;-77
2022/03/19 03:36:51;;;;;;;20.40;5.55;;;10.70;90.80;;;;;;5053487;28;20052;-76
2022/03/19 03:39:16;;;;;;;18.40;4.78;;;10.60;90.80;;;;;;5053376;28;20025;-76
2022/03/19 03:41:42;;;;;;;16.75;5.15;;;10.50;91.00;;;;;;5053491;28;20035;-77
2022/03/19 03:44:07;;;;;;;15.98;5.68;;;10.50;91.40;;;;;;5053416;28;20036;-77
2022/03/19 03:46:33;;;;;;;18.27;5.50;;;10.60;91.10;;;;;;5053481;28;20029;-77
2022/03/19 03:48:58;;;;;;;14.63;5.43;;;10.60;91.10;;;;;;5052752;28;20033;-77
2022/03/19 03:51:24;;;;;;;13.23;5.60;;;10.70;90.80;;;;;;5053634;28;20041;-77
2022/03/19 03:53:50;;;;;;;17.33;5.35;;;10.50;90.90;;;;;;5053138;28;20471;-77
2022/03/19 03:56:15;;;;;;;16.88;5.30;;;10.50;91.20;;;;;;5053495;28;20033;-77
2022/03/19 03:58:43;;;;;;;13.95;5.65;;;10.50;91.20;;;;;;5052840;28;20020;-77
2022/03/19 04:01:09;;;;;;;17.10;5.63;;;10.40;91.10;;;;;;5052992;28;20025;-77
2022/03/19 04:03:34;;;;;;;20.27;6.78;;;10.40;91.20;;;;;;5053283;28;20032;-78
2022/03/19 04:06:00;;;;;;;14.98;5.88;;;10.40;91.50;;;;;;5052891;28;20487;-79
2022/03/19 04:08:26;;;;;;;14.98;6.53;;;10.30;91.40;;;;;;5052768;28;20239;-79
2022/03/19 04:10:51;;;;;;;12.23;5.25;;;10.30;91.50;;;;;;5052880;28;20116;-79
2022/03/19 04:13:17;;;;;;;19.92;6.53;;;10.20;91.80;;;;;;5052369;28;20037;-78
2022/03/19 04:15:43;;;;;;;16.63;5.68;;;10.20;91.70;;;;;;5053081;28;20150;-78
2022/03/19 04:18:09;;;;;;;15.20;6.07;;;10.10;92.40;;;;;;5052926;28;20021;-79
2022/03/19 04:20:35;;;;;;;20.75;5.25;;;10.10;92.00;;;;;;5053238;28;20029;-78
2022/03/19 04:23:01;;;;;;;15.00;5.75;;;10.20;92.00;;;;;;5053007;28;20078;-78
2022/03/19 04:25:26;;;;;;;12.40;5.45;;;10.20;91.90;;;;;;5052239;28;20041;-78
2022/03/19 04:27:54;;;;;;;14.23;6.10;;;10.20;92.00;;;;;;5052594;28;20403;-78
2022/03/19 04:30:22;;;;;;;11.82;4.95;;;10.20;92.00;;;;;;5052439;28;20036;-78
2022/03/19 04:32:56;;;;;;;16.33;5.72;;;10.20;92.10;;;;;;5052114;28;20083;-78
2022/03/19 04:38:10;;;;;;;18.85;5.95;;;10.20;92.20;;;;;;5052338;28;20036;-78
2022/03/19 04:40:37;;;;;;;17.50;5.65;;;10.20;91.90;;;;;;5052973;28;20033;-78
2022/03/19 04:43:03;;;;;;;21.95;6.63;;;10.20;91.90;;;;;;5052561;28;20017;-77
2022/03/19 04:45:29;;;;;;;18.73;5.85;;;10.20;91.90;;;;;;5052699;28;20064;-77
2022/03/19 04:47:55;;;;;;;12.68;5.28;;;10.10;92.30;;;;;;5052511;28;20061;-77
2022/03/19 04:50:21;;;;;;;19.45;5.85;;;10.20;92.00;;;;;;5051369;28;20037;-77
2022/03/19 04:52:49;;;;;;;15.93;5.38;;;10.20;91.90;;;;;;5052665;28;20024;-77
2022/03/19 04:55:15;;;;;;;13.60;5.43;;;10.10;91.90;;;;;;5052605;28;20033;-77
2022/03/19 04:57:41;;;;;;;15.07;4.78;;;10.10;92.00;;;;;;5041917;28;20049;-77
2022/03/19 05:00:09;;;;;;;16.23;5.80;;;10.00;92.00;;;;;;5048668;28;20499;-77
2022/03/19 05:02:35;;;;;;;15.77;5.47;;;10.00;92.10;;;;;;5051799;28;20032;-77
2022/03/19 05:05:01;;;;;;;16.08;5.60;;;10.00;92.20;;;;;;5047689;28;20029;-77
2022/03/19 05:07:27;;;;;;;13.15;5.35;;;10.00;92.20;;;;;;5036632;28;20476;-77
2022/03/19 05:12:40;;;;;;;14.98;5.07;;;10.10;91.90;;;;;;5052312;28;20083;-77
2022/03/19 05:15:07;;;;;;;18.50;6.50;;;10.10;91.70;;;;;;5050720;28;20029;-77
2022/03/19 05:17:33;;;;;;;14.23;4.93;;;10.10;91.60;;;;;;5051666;28;20028;-77
2022/03/19 05:19:58;;;;;;;15.70;5.13;;;10.00;91.80;;;;;;5050916;28;20036;-77
2022/03/19 05:22:24;;;;;;;10.70;4.72;;;10.00;91.80;;;;;;5052418;28;20029;-77
2022/03/19 05:24:50;;;;;;;16.90;5.97;;;9.90;91.80;;;;;;5052273;28;20033;-77
2022/03/19 05:27:16;;;;;;;12.57;5.40;;;10.00;91.80;;;;;;5052192;28;20098;-77
2022/03/19 05:29:41;;;;;;;15.70;5.38;;;9.90;91.80;;;;;;5052471;28;20029;-77
2022/03/19 05:32:08;;;;;;;17.70;6.45;;;9.90;91.90;;;;;;5052094;28;20028;-77
2022/03/19 05:34:34;;;;;;;19.20;5.43;;;9.80;92.00;;;;;;5052260;28;20503;-77
2022/03/19 05:37:01;;;;;;;15.23;5.05;;;9.90;91.80;;;;;;5052471;28;20037;-77
2022/03/19 05:39:28;;;;;;;20.23;5.90;;;9.80;91.80;;;;;;5052015;28;20037;-77
2022/03/19 05:41:54;;;;;;;16.98;5.22;;;9.90;91.80;;;;;;5052254;28;20042;-77
2022/03/19 05:44:20;;;;;;;14.52;4.80;;;9.90;91.80;;;;;;5052068;28;20037;-78
2022/03/19 05:46:45;;;;;;;17.63;5.05;;;9.80;91.90;;;;;;5054960;28;20043;-77
2022/03/19 05:49:11;;;;;;;13.05;4.78;;;9.80;91.60;;;;;;5055601;28;20056;-77
2022/03/19 05:51:37;;;;;;;17.05;5.40;;;9.80;91.70;;;;;;5055688;28;20036;-77
2022/03/19 05:54:03;;;;;;;13.00;4.75;;;9.70;91.70;;;;;;5055325;28;20017;-77
2022/03/19 05:56:30;;;;;;;17.48;4.63;;;9.70;91.40;;;;;;5055950;28;20029;-77
2022/03/19 05:58:56;;;;;;;15.32;4.68;;;9.60;91.30;;;;;;5055167;28;20017;-77
2022/03/19 06:01:28;;;;;;;15.88;4.15;;;9.60;91.30;;;;;;5055325;28;20060;-77
2022/03/19 06:03:54;;;;;;;15.77;4.43;;;9.50;91.10;;;;;;5055768;28;20066;-77
2022/03/19 06:06:20;;;;;;;11.68;3.30;;;9.50;91.00;;;;;;5055136;28;20330;-77
2022/03/19 06:08:46;;;;;;;15.65;4.10;;;9.50;90.70;;;;;;5055164;28;20497;-78
2022/03/19 06:11:11;;;;;;;12.13;3.70;;;9.60;90.80;;;;;;5054542;28;20094;-77
2022/03/19 06:13:37;;;;;;;15.10;4.38;;;9.50;90.40;;;;;;5054950;28;20025;-77
2022/03/19 06:16:02;;;;;;;13.50;4.43;;;9.50;90.80;;;;;;5054839;28;20029;-77
2022/03/19 06:18:28;;;;;;;14.52;3.83;;;9.50;90.50;;;;;;5055184;28;20530;-77
2022/03/19 06:20:54;;;;;;;14.32;3.78;;;9.50;90.30;;;;;;5055373;28;20024;-77
2022/03/19 06:23:19;;;;;;;12.23;4.18;;;9.50;90.30;;;;;;5054964;28;20021;-77
2022/03/19 06:25:45;;;;;;;18.63;5.05;;;9.60;90.00;;;;;;5055004;28;20025;-78
2022/03/19 06:28:10;;;;;;;19.98;4.97;;;9.50;90.00;;;;;;5054679;28;20037;-77
2022/03/19 06:30:37;;;;;;;14.70;4.15;;;9.50;89.90;;;;;;5054519;28;20029;-77
2022/03/19 06:33:06;;;;;;;15.80;4.60;;;9.50;90.00;;;;;;5054644;28;20108;-77
2022/03/19 06:38:17;;;;;;;11.25;3.70;;;9.40;90.00;;;;;;5054888;28;20114;-77
2022/03/19 06:40:43;;;;;;;14.73;3.88;;;9.40;89.70;;;;;;5054340;28;20072;-77
2022/03/19 06:43:09;;;;;;;18.20;3.67;;;9.50;89.50;;;;;;5053945;28;20108;-78
2022/03/19 06:45:34;;;;;;;14.98;3.58;;;9.50;89.00;;;;;;5054853;28;20029;-77
2022/03/19 06:48:00;;;;;;;19.15;4.85;;;9.50;89.00;;;;;;5054684;28;20025;-77
2022/03/19 06:50:25;;;;;;;16.60;3.28;;;9.60;88.90;;;;;;5053901;28;20037;-78
2022/03/19 06:52:51;;;;;;;15.77;3.50;;;9.70;88.30;;;;;;5053031;28;20036;-77
2022/03/19 06:55:17;;;;;;;13.35;3.47;;;9.80;87.00;;;;;;5053756;28;20045;-79
2022/03/19 06:57:42;;;;;;;14.30;3.72;;;9.80;86.40;;;;;;5053946;28;20033;-79
2022/03/19 07:00:08;;;;;;;14.27;3.38;;;9.70;85.90;;;;;;5054228;28;20053;-79
2022/03/19 07:02:49;;;;;;;14.07;3.33;;;9.70;85.90;;;;;;5054525;28;20385;-79
2022/03/19 07:05:21;;;;;;;15.68;3.33;;;9.80;85.80;;;;;;5054144;28;20032;-79
2022/03/19 07:07:54;;;;;;;14.77;4.32;;;9.70;85.20;;;;;;5044749;28;20049;-79
2022/03/19 07:10:20;;;;;;;12.30;3.67;;;9.80;85.00;;;;;;5054054;28;20048;-79
2022/03/19 07:12:46;;;;;;;11.13;3.15;;;9.90;84.40;;;;;;5053859;28;20035;-79
2022/03/19 07:15:20;;;;;;;11.52;3.50;;;9.90;83.30;;;;;;5053467;28;20610;-78
2022/03/19 07:17:46;;;;;;;12.60;2.85;;;10.00;82.60;;;;;;5045352;28;20060;-79
2022/03/19 07:20:14;;;;;;;15.40;3.65;;;10.00;82.20;;;;;;5053968;28;20021;-78
2022/03/19 07:22:45;;;;;;;14.70;3.42;;;10.10;82.40;;;;;;5053939;28;20029;-78
2022/03/19 07:25:11;;;;;;;16.95;3.72;;;10.10;82.10;;;;;;5054245;28;20029;-78
2022/03/19 07:27:36;;;;;;;13.98;4.03;;;10.20;82.60;;;;;;5054126;28;20092;-78
2022/03/19 07:30:02;;;;;;;12.40;3.33;;;10.20;82.30;;;;;;5053543;28;20380;-78
2022/03/19 07:32:28;;;;;;;16.60;3.83;;;10.20;82.50;;;;;;5053316;28;20037;-78
2022/03/19 07:34:55;;;;;;;11.25;3.38;;;10.30;83.00;;;;;;5053787;28;20418;-77
2022/03/19 07:37:20;;;;;;;14.25;4.05;;;10.40;83.20;;;;;;5053582;28;20368;-78
2022/03/19 07:39:46;;;;;;;14.65;4.22;;;10.50;83.20;;;;;;5053921;28;20036;-79
2022/03/19 07:42:11;;;;;;;12.73;4.10;;;10.50;83.10;;;;;;5052805;28;20055;-79
2022/03/19 07:44:37;;;;;;;14.32;3.92;;;10.50;83.20;;;;;;5053698;28;20043;-79
2022/03/19 07:47:03;;;;;;;19.15;4.60;;;10.60;83.10;;;;;;5053512;28;20403;-79
2022/03/19 07:49:28;;;;;;;11.55;3.95;;;10.60;83.10;;;;;;5053405;28;20542;-79
2022/03/19 07:51:55;;;;;;;17.35;4.55;;;10.70;83.20;;;;;;5053041;28;20033;-80
2022/03/19 07:54:23;;;;;;;19.13;5.20;;;10.70;83.10;;;;;;5045547;28;20025;-80
2022/03/19 07:56:51;;;;;;;15.52;4.20;;;10.70;83.20;;;;;;5053426;28;20043;-80
2022/03/19 07:59:17;;;;;;;12.50;3.95;;;10.70;82.90;;;;;;5053287;28;20041;-78
2022/03/19 08:01:42;;;;;;;14.30;4.22;;;10.60;83.70;;;;;;5053402;28;20025;-80
2022/03/19 08:04:08;;;;;;;21.92;6.22;;;10.70;83.50;;;;;;5052980;28;20025;-79
2022/03/19 08:06:34;;;;;;;14.45;4.05;;;10.70;83.20;;;;;;5052927;28;20029;-78
2022/03/19 08:09:00;;;;;;;13.55;3.67;;;10.80;82.40;;;;;;5051372;28;20044;-80
2022/03/19 08:11:26;;;;;;;15.25;4.07;;;10.90;82.40;;;;;;5052977;28;20044;-79
2022/03/19 08:13:51;;;;;;;16.38;4.68;;;10.90;82.20;;;;;;5052196;28;20021;-77
2022/03/19 08:16:17;;;;;;;18.77;3.97;;;11.00;81.40;;;;;;5052722;28;20037;-78
2022/03/19 08:18:42;;;;;;;12.15;4.47;;;11.00;81.30;;;;;;5051672;28;20021;-79
2022/03/19 08:21:08;;;;;;;14.05;3.63;;;11.00;81.00;;;;;;5052708;28;20070;-81
2022/03/19 08:23:35;;;;;;;13.65;3.60;;;11.10;80.70;;;;;;5052510;28;20021;-78
2022/03/19 08:26:01;;;;;;;10.77;3.47;;;11.20;80.70;;;;;;5053017;28;20128;-74
2022/03/19 08:28:28;;;;;;;13.52;3.30;;;11.30;79.50;;;;;;5055766;28;20025;-74
2022/03/19 08:30:55;;;;;;;18.40;3.88;;;11.40;78.20;;;;;;5059417;28;20029;-74
2022/03/19 08:33:20;;;;;;;9.02;2.90;;;11.40;78.10;;;;;;5036377;28;20021;-74
2022/03/19 08:35:46;;;;;;;13.02;4.10;;;11.50;77.10;;;;;;5034373;28;20112;-74
2022/03/19 08:40:57;;;;;;;16.85;3.60;;;11.90;75.20;;;;;;5048331;28;20044;-74
2022/03/19 08:43:22;;;;;;;10.98;3.47;;;12.00;75.60;;;;;;5039056;28;20059;-74
2022/03/19 08:45:48;;;;;;;12.77;3.17;;;12.00;73.90;;;;;;5052296;28;20110;-74
2022/03/19 08:48:14;;;;;;;15.07;3.17;;;12.10;73.40;;;;;;5052012;28;20017;-75
2022/03/19 08:50:39;;;;;;;11.20;3.38;;;12.20;74.10;;;;;;5052017;28;20182;-74
2022/03/19 08:53:05;;;;;;;9.75;3.25;;;12.20;72.20;;;;;;5052289;28;20039;-75
2022/03/19 08:55:31;;;;;;;13.82;3.03;;;12.30;71.00;;;;;;5051598;28;20028;-75
2022/03/19 08:57:56;;;;;;;10.68;3.10;;;12.30;70.30;;;;;;5052138;28;20021;-77
2022/03/19 09:00:22;;;;;;;12.05;2.97;;;12.40;70.30;;;;;;5052441;28;20075;-76
2022/03/19 09:02:49;;;;;;;15.27;3.00;;;12.50;69.50;;;;;;5052519;28;20025;-76
2022/03/19 09:05:14;;;;;;;11.80;2.85;;;12.60;68.40;;;;;;5051775;28;20032;-78
2022/03/19 09:07:40;;;;;;;13.07;2.78;;;12.60;67.50;;;;;;5052663;28;20044;-75
2022/03/19 09:10:06;;;;;;;8.93;2.63;;;12.60;66.70;;;;;;5052367;28;20487;-78
2022/03/19 09:12:32;;;;;;;33.65;3.60;;;12.80;67.00;;;;;;5051151;28;20029;-75
2022/03/19 09:14:57;;;;;;;11.38;2.72;;;12.80;63.90;;;;;;5052080;28;20048;-75
2022/03/19 09:17:23;;;;;;;9.07;2.03;;;12.80;63.40;;;;;;5052492;28;20033;-75
2022/03/19 09:19:48;;;;;;;10.55;2.40;;;12.90;63.10;;;;;;5053423;28;20495;-76
2022/03/19 09:22:14;;;;;;;8.88;2.53;;;13.00;62.30;;;;;;5055978;28;20057;-74
2022/03/19 09:24:40;;;;;;;17.92;3.08;;;13.10;61.70;;;;;;5056044;28;20391;-74
2022/03/19 09:27:05;;;;;;;8.73;2.22;;;13.10;61.90;;;;;;5055425;28;20038;-75
2022/03/19 09:29:31;;;;;;;10.20;2.53;;;13.10;61.50;;;;;;5055528;28;20431;-77
2022/03/19 09:31:57;;;;;;;8.52;2.15;;;13.20;61.10;;;;;;5056099;28;20045;-75
2022/03/19 09:34:23;;;;;;;6.50;1.80;;;13.30;60.00;;;;;;5055842;28;20028;-75
2022/03/19 09:36:48;;;;;;;7.63;1.88;;;13.30;57.90;;;;;;5056002;28;20048;-73
2022/03/19 09:39:15;;;;;;;11.15;2.10;;;13.40;58.60;;;;;;5055850;28;20134;-75
2022/03/19 09:41:44;;;;;;;8.30;2.00;;;13.40;57.60;;;;;;5055883;28;20032;-72
2022/03/19 09:44:12;;;;;;;11.30;1.90;;;13.60;58.70;;;;;;5055798;28;20380;-73
2022/03/19 09:46:38;;;;;;;7.47;1.85;;;13.70;56.00;;;;;;5055549;28;20045;-74
2022/03/19 09:49:04;;;;;;;8.70;2.30;;;13.70;55.00;;;;;;5055752;28;20031;-73
2022/03/19 09:51:32;;;;;;;6.65;1.90;;;13.80;55.70;;;;;;5054525;28;20041;-75
2022/03/19 09:53:57;;;;;;;8.13;1.75;;;13.90;55.30;;;;;;5055352;28;20029;-74
2022/03/19 09:56:23;;;;;;;4.18;1.50;;;14.10;54.70;;;;;;5055489;28;20083;-74
2022/03/19 09:58:49;;;;;;;5.95;1.52;;;14.30;53.60;;;;;;5055122;28;20021;-76
2022/03/19 10:01:20;;;;;;;7.00;1.90;;;14.30;53.10;;;;;;5054945;28;20082;-75
2022/03/19 10:03:49;;;;;;;6.20;1.77;;;14.50;52.40;;;;;;5055253;28;20392;-76
2022/03/19 10:09:01;;;;;;;7.25;1.70;;;14.50;50.40;;;;;;5055186;28;20450;-80
2022/03/19 10:11:33;;;;;;;8.07;1.65;;;14.60;50.50;;;;;;5055332;28;20033;-77
2022/03/19 10:14:04;;;;;;;10.02;1.42;;;14.80;48.50;;;;;;5055328;28;20468;-78
2022/03/19 10:16:33;;;;;;;5.63;1.65;;;14.80;47.10;;;;;;5054677;28;20033;-81
2022/03/19 10:19:01;;;;;;;3.20;1.20;;;14.70;47.10;;;;;;5054719;28;20407;-79
2022/03/19 10:21:28;;;;;;;6.60;1.27;;;14.70;46.70;;;;;;5052098;28;20029;-77
2022/03/19 10:23:55;;;;;;;6.28;1.10;;;14.80;47.20;;;;;;5054153;28;20025;-76
2022/03/19 10:26:34;;;;;;;7.63;1.70;;;14.80;46.10;;;;;;5054955;28;20039;-75
2022/03/19 10:29:09;;;;;;;11.77;1.15;;;14.80;43.80;;;;;;5054070;28;20028;-75
2022/03/19 10:31:46;;;;;;;4.93;1.40;;;14.90;45.40;;;;;;5054167;28;20040;-75
2022/03/19 10:34:14;;;;;;;5.30;1.75;;;14.90;46.20;;;;;;5054607;28;20036;-75
2022/03/19 10:36:42;;;;;;;4.85;1.48;;;14.90;45.10;;;;;;5054361;28;20032;-75
2022/03/19 10:39:11;;;;;;;8.18;1.63;;;14.90;45.50;;;;;;5054284;28;20068;-75
2022/03/19 10:41:37;;;;;;;8.10;1.67;;;15.00;46.80;;;;;;5054926;28;20029;-76
2022/03/19 10:44:17;;;;;;;7.28;1.42;;;15.20;45.10;;;;;;5054252;28;20388;-77
2022/03/19 10:46:53;;;;;;;5.82;1.70;;;15.20;45.30;;;;;;5054783;28;20445;-78
2022/03/19 10:49:22;;;;;;;8.48;2.00;;;15.30;45.00;;;;;;5052525;28;20035;-79
2022/03/19 10:51:50;;;;;;;6.35;1.65;;;15.30;45.20;;;;;;5053885;28;20116;-81
2022/03/19 10:54:16;;;;;;;4.47;1.35;;;15.40;45.10;;;;;;5053962;28;20017;-79
2022/03/19 10:56:46;;;;;;;4.13;1.20;;;15.50;44.00;;;;;;5054506;28;20503;-80
2022/03/19 10:59:12;;;;;;;8.43;1.38;;;15.50;44.30;;;;;;5054208;28;20109;-79
2022/03/19 11:01:38;;;;;;;13.27;1.42;;;15.60;43.90;;;;;;5054105;28;20064;-81
2022/03/19 11:04:06;;;;;;;7.97;1.52;;;15.50;44.90;;;;;;5053802;28;20036;-79
2022/03/19 11:06:36;;;;;;;9.18;1.17;;;15.50;44.00;;;;;;5054278;28;20032;-79
2022/03/19 11:09:06;;;;;;;4.40;1.20;;;15.60;43.80;;;;;;5053966;28;20098;-79
2022/03/19 11:11:40;;;;;;;7.60;1.30;;;15.70;43.10;;;;;;5053884;28;20048;-77
2022/03/19 11:14:08;;;;;;;7.88;1.27;;;15.70;43.00;;;;;;5053781;28;20108;-79
2022/03/19 11:16:37;;;;;;;5.88;0.95;;;15.80;41.50;;;;;;5053756;28;20112;-79
2022/03/19 11:19:04;;;;;;;4.75;1.13;;;15.80;40.60;;;;;;5053971;28;20032;-78
2022/03/19 11:21:33;;;;;;;4.43;0.90;;;15.90;40.60;;;;;;5054069;28;20037;-78
2022/03/19 11:24:12;;;;;;;6.97;1.15;;;16.00;41.40;;;;;;5053890;28;20055;-78
2022/03/19 11:26:39;;;;;;;2.58;0.73;;;16.10;40.10;;;;;;5054226;28;20029;-78
2022/03/19 11:29:05;;;;;;;5.45;0.82;;;16.10;40.50;;;;;;5053972;28;20025;-78
2022/03/19 11:31:32;;;;;;;8.93;0.90;;;16.30;40.90;;;;;;5053965;28;20041;-78
2022/03/19 11:34:15;;;;;;;9.25;0.95;;;16.40;40.80;;;;;;5053557;28;20025;-81
2022/03/19 11:36:57;;;;;;;;;;;16.50;38.70;;;;;;5053783;28;20039;-79
2022/03/19 11:39:23;;;;;;;5.28;0.80;;;16.50;37.40;;;;;;5053678;28;19908;-79
2022/03/19 11:41:49;;;;;;;4.70;1.05;;;16.50;37.40;;;;;;5053285;28;20056;-78
2022/03/19 11:44:16;;;;;;;3.83;0.68;;;16.40;38.50;;;;;;5053624;28;20075;-79
2022/03/19 11:46:59;;;;;;;6.88;0.80;;;16.50;38.10;;;;;;5053053;28;20057;-77
2022/03/19 11:49:52;;;;;;;4.32;0.80;;;16.50;38.10;;;;;;5052890;28;20028;-77
2022/03/19 11:52:26;;;;;;;4.60;0.80;;;16.50;39.40;;;;;;5053516;28;20075;-77
2022/03/19 11:55:04;;;;;;;5.50;1.05;;;16.60;39.60;;;;;;5052897;28;20029;-76
2022/03/19 11:57:45;;;;;;;4.20;1.02;;;16.70;39.60;;;;;;5051558;28;20033;-76
2022/03/19 12:00:14;;;;;;;5.28;0.80;;;16.90;39.90;;;;;;5050132;28;20033;-77
2022/03/19 12:03:04;;;;;;;3.88;0.70;;;16.90;37.90;;;;;;5053315;28;20029;-77
2022/03/19 12:05:31;;;;;;;3.47;0.50;;;17.00;36.50;;;;;;5034865;28;20050;-77
2022/03/19 12:08:09;;;;;;;2.45;0.40;;;17.00;36.40;;;;;;5034352;28;20087;-76
2022/03/19 12:10:54;;;;;;;3.47;0.45;;;16.80;34.20;;;;;;5034309;28;20044;-76
2022/03/19 12:13:27;;;;;;;3.63;0.60;;;16.60;34.50;;;;;;5034348;28;20068;-76
2022/03/19 12:15:57;;;;;;;3.72;0.43;;;16.50;34.00;;;;;;5039865;28;20108;-76
2022/03/19 12:18:33;;;;;;;3.53;0.50;;;16.50;36.30;;;;;;5052567;28;20033;-76
2022/03/19 12:21:04;;;;;;;6.55;0.68;;;16.60;35.50;;;;;;5052766;28;20498;-76
2022/03/19 12:23:55;;;;;;;3.90;0.60;;;16.60;35.70;;;;;;5052762;28;20029;-76
2022/03/19 12:26:24;;;;;;;4.20;0.70;;;16.70;36.60;;;;;;5052519;28;20041;-76
2022/03/19 12:29:05;;;;;;;5.72;0.80;;;16.80;36.80;;;;;;5052712;28;20063;-75
2022/03/19 12:31:44;;;;;;;6.75;1.25;;;16.90;36.90;;;;;;5052309;28;20044;-75
2022/03/19 12:34:24;;;;;;;5.45;1.05;;;16.90;38.00;;;;;;5052714;28;20048;-76
2022/03/19 12:36:51;;;;;;;6.45;0.88;;;17.10;38.60;;;;;;5052485;28;20123;-76
2022/03/19 12:39:17;;;;;;;3.97;0.85;;;17.20;38.30;;;;;;5052466;28;20554;-77
2022/03/19 12:41:44;;;;;;;6.45;1.20;;;17.20;38.30;;;;;;5046283;28;20414;-73
2022/03/19 12:44:28;;;;;;;6.97;0.90;;;17.30;38.00;;;;;;5052673;28;20033;-75
2022/03/19 12:46:59;;;;;;;4.60;0.98;;;17.50;37.60;;;;;;5052554;28;20104;-75
2022/03/19 12:49:27;;;;;;;4.43;0.80;;;17.50;36.60;;;;;;5052996;28;20037;-74
2022/03/19 12:51:52;;;;;;;4.50;0.70;;;17.40;36.70;;;;;;5052451;28;20086;-76
2022/03/19 12:54:21;;;;;;;3.95;0.77;;;17.50;36.30;;;;;;5052996;28;20029;-75
2022/03/19 12:56:48;;;;;;;5.55;0.73;;;17.60;35.60;;;;;;5056736;28;20029;-75
2022/03/19 12:59:20;;;;;;;6.50;0.65;;;17.60;36.40;;;;;;5056293;28;20063;-75